sensor_id;sensor_type;location;lat;lon;timestamp;temperature;humidity
21489;DHT22;10906;45.194;5.684;2022-09-23T05:03:16;12.10;97.00
21489;DHT22;10906;45.194;5.684;2022-09-23T05:06:00;12.10;97.10
21489;DHT22;10906;45.194;5.684;2022-09-23T05:08:48;11.90;97.00
21489;DHT22;10906;45.194;5.684;2022-09-23T05:11:33;12.10;97.10
21489;DHT22;10906;45.194;5.684;2022-09-23T05:14:18;12.10;97.20
21489;DHT22;10906;45.194;5.684;2022-09-23T05:17:02;12.00;97.20
21489;DHT22;10906;45.194;5.684;2022-09-23T05:19:47;12.00;97.30
21489;DHT22;10906;45.194;5.684;2022-09-23T05:22:31;12.00;97.30
21489;DHT22;10906;45.194;5.684;2022-09-23T05:25:15;12.00;97.30
21489;DHT22;10906;45.194;5.684;2022-09-23T05:28:00;12.00;97.50
21489;DHT22;10906;45.194;5.684;2022-09-23T05:30:45;12.00;97.50
21489;DHT22;10906;45.194;5.684;2022-09-23T05:33:31;11.90;97.50
21489;DHT22;10906;45.194;5.684;2022-09-23T05:36:15;11.90;97.50
21489;DHT22;10906;45.194;5.684;2022-09-23T05:39:04;11.80;97.60
21489;DHT22;10906;45.194;5.684;2022-09-23T05:41:48;11.80;97.60
21489;DHT22;10906;45.194;5.684;2022-09-23T05:44:33;11.80;97.80
21489;DHT22;10906;45.194;5.684;2022-09-23T05:47:18;11.80;97.80
21489;DHT22;10906;45.194;5.684;2022-09-23T05:50:02;12.00;97.90
21489;DHT22;10906;45.194;5.684;2022-09-23T05:52:46;11.70;97.80
21489;DHT22;10906;45.194;5.684;2022-09-23T05:55:31;11.70;97.90
21489;DHT22;10906;45.194;5.684;2022-09-23T05:58:19;11.70;98.00
21489;DHT22;10906;45.194;5.684;2022-09-23T06:01:12;11.80;98.00
21489;DHT22;10906;45.194;5.684;2022-09-23T06:03:57;11.80;98.00
21489;DHT22;10906;45.194;5.684;2022-09-23T06:06:42;11.80;98.20
21489;DHT22;10906;45.194;5.684;2022-09-23T06:09:26;11.80;98.20
21489;DHT22;10906;45.194;5.684;2022-09-23T06:12:10;11.80;98.20
21489;DHT22;10906;45.194;5.684;2022-09-23T06:15:00;11.80;98.20
21489;DHT22;10906;45.194;5.684;2022-09-23T06:17:48;11.90;98.30
21489;DHT22;10906;45.194;5.684;2022-09-23T06:20:38;12.40;98.80
21489;DHT22;10906;45.194;5.684;2022-09-23T06:23:23;11.90;98.30
21489;DHT22;10906;45.194;5.684;2022-09-23T06:26:09;13.30;99.00
21489;DHT22;10906;45.194;5.684;2022-09-23T06:28:54;11.90;98.20
21489;DHT22;10906;45.194;5.684;2022-09-23T06:31:38;11.90;98.00
21489;DHT22;10906;45.194;5.684;2022-09-23T06:34:24;12.00;98.10
21489;DHT22;10906;45.194;5.684;2022-09-23T06:37:08;12.00;98.10
21489;DHT22;10906;45.194;5.684;2022-09-23T06:39:53;12.00;98.20
21489;DHT22;10906;45.194;5.684;2022-09-23T06:42:37;12.10;98.10
21489;DHT22;10906;45.194;5.684;2022-09-23T06:45:22;12.20;98.20
21489;DHT22;10906;45.194;5.684;2022-09-23T06:48:06;12.20;98.10
21489;DHT22;10906;45.194;5.684;2022-09-23T06:50:53;12.20;98.00
21489;DHT22;10906;45.194;5.684;2022-09-23T06:53:37;12.30;98.00
21489;DHT22;10906;45.194;5.684;2022-09-23T06:56:22;12.30;97.90
21489;DHT22;10906;45.194;5.684;2022-09-23T06:59:09;12.50;97.90
21489;DHT22;10906;45.194;5.684;2022-09-23T07:01:56;12.50;97.70
21489;DHT22;10906;45.194;5.684;2022-09-23T07:04:41;12.60;97.60
21489;DHT22;10906;45.194;5.684;2022-09-23T07:07:29;12.70;97.40
21489;DHT22;10906;45.194;5.684;2022-09-23T07:10:14;12.80;97.40
21489;DHT22;10906;45.194;5.684;2022-09-23T07:13:01;12.90;97.30
21489;DHT22;10906;45.194;5.684;2022-09-23T07:15:49;12.90;97.10
21489;DHT22;10906;45.194;5.684;2022-09-23T07:18:35;13.00;97.00
21489;DHT22;10906;45.194;5.684;2022-09-23T07:21:20;13.10;96.90
21489;DHT22;10906;45.194;5.684;2022-09-23T07:24:05;13.20;96.70
21489;DHT22;10906;45.194;5.684;2022-09-23T07:26:50;13.30;96.50
21489;DHT22;10906;45.194;5.684;2022-09-23T07:29:34;13.40;96.70
21489;DHT22;10906;45.194;5.684;2022-09-23T07:32:20;13.50;96.40
21489;DHT22;10906;45.194;5.684;2022-09-23T07:35:05;13.60;96.50
21489;DHT22;10906;45.194;5.684;2022-09-23T07:37:50;13.80;96.30
21489;DHT22;10906;45.194;5.684;2022-09-23T07:40:34;13.90;96.20
21489;DHT22;10906;45.194;5.684;2022-09-23T07:43:18;14.10;96.00
21489;DHT22;10906;45.194;5.684;2022-09-23T07:46:09;14.20;95.90
21489;DHT22;10906;45.194;5.684;2022-09-23T07:48:54;14.40;95.90
21489;DHT22;10906;45.194;5.684;2022-09-23T07:51:40;14.60;95.60
21489;DHT22;10906;45.194;5.684;2022-09-23T07:54:26;14.80;95.20
21489;DHT22;10906;45.194;5.684;2022-09-23T07:57:12;15.10;95.20
21489;DHT22;10906;45.194;5.684;2022-09-23T07:59:57;15.30;94.90
21489;DHT22;10906;45.194;5.684;2022-09-23T08:02:41;15.50;94.60
21489;DHT22;10906;45.194;5.684;2022-09-23T08:05:25;15.80;94.60
21489;DHT22;10906;45.194;5.684;2022-09-23T08:08:10;15.90;94.00
21489;DHT22;10906;45.194;5.684;2022-09-23T08:11:02;16.10;94.20
21489;DHT22;10906;45.194;5.684;2022-09-23T08:13:47;16.30;94.00
21489;DHT22;10906;45.194;5.684;2022-09-23T08:16:31;16.60;93.70
21489;DHT22;10906;45.194;5.684;2022-09-23T08:19:15;16.80;93.40
21489;DHT22;10906;45.194;5.684;2022-09-23T08:21:59;17.00;93.30
21489;DHT22;10906;45.194;5.684;2022-09-23T08:24:44;17.10;92.80
21489;DHT22;10906;45.194;5.684;2022-09-23T08:27:28;17.20;92.90
21489;DHT22;10906;45.194;5.684;2022-09-23T08:30:12;17.30;92.50
21489;DHT22;10906;45.194;5.684;2022-09-23T08:32:57;17.40;92.50
21489;DHT22;10906;45.194;5.684;2022-09-23T08:35:42;17.50;92.00
21489;DHT22;10906;45.194;5.684;2022-09-23T08:47:39;18.00;91.30
21489;DHT22;10906;45.194;5.684;2022-09-23T08:50:33;18.20;91.20
21489;DHT22;10906;45.194;5.684;2022-09-23T08:53:28;18.40;91.10
21489;DHT22;10906;45.194;5.684;2022-09-23T08:56:19;18.50;90.70
21489;DHT22;10906;45.194;5.684;2022-09-23T08:59:11;18.60;90.60
21489;DHT22;10906;45.194;5.684;2022-09-23T09:02:00;18.80;90.60
21489;DHT22;10906;45.194;5.684;2022-09-23T09:04:52;19.00;90.30
21489;DHT22;10906;45.194;5.684;2022-09-23T09:07:39;19.30;89.00
21489;DHT22;10906;45.194;5.684;2022-09-23T09:10:32;19.50;90.20
21489;DHT22;10906;45.194;5.684;2022-09-23T09:13:33;19.80;88.70
21489;DHT22;10906;45.194;5.684;2022-09-23T09:19:19;20.20;86.90
21489;DHT22;10906;45.194;5.684;2022-09-23T09:22:07;20.30;86.20
21489;DHT22;10906;45.194;5.684;2022-09-23T09:25:04;20.30;85.90
21489;DHT22;10906;45.194;5.684;2022-09-23T09:27:51;20.40;84.50
21489;DHT22;10906;45.194;5.684;2022-09-23T09:30:36;20.40;83.90
21489;DHT22;10906;45.194;5.684;2022-09-23T09:33:49;20.50;84.70
21489;DHT22;10906;45.194;5.684;2022-09-23T09:39:23;20.60;83.70
21489;DHT22;10906;45.194;5.684;2022-09-23T09:42:14;20.40;82.00
21489;DHT22;10906;45.194;5.684;2022-09-23T09:45:03;20.30;81.30
21489;DHT22;10906;45.194;5.684;2022-09-23T09:47:58;20.30;81.10
21489;DHT22;10906;45.194;5.684;2022-09-23T09:50:53;20.40;80.60
21489;DHT22;10906;45.194;5.684;2022-09-23T09:53:39;20.50;80.10
21489;DHT22;10906;45.194;5.684;2022-09-23T09:56:24;20.60;80.60
21489;DHT22;10906;45.194;5.684;2022-09-23T09:59:23;20.80;76.00
21489;DHT22;10906;45.194;5.684;2022-09-23T10:05:11;21.40;79.10
21489;DHT22;10906;45.194;5.684;2022-09-23T10:08:28;21.60;79.40
21489;DHT22;10906;45.194;5.684;2022-09-23T10:11:16;21.80;78.00
21489;DHT22;10906;45.194;5.684;2022-09-23T10:14:15;21.80;79.10
21489;DHT22;10906;45.194;5.684;2022-09-23T10:17:05;21.90;76.60
21489;DHT22;10906;45.194;5.684;2022-09-23T10:19:55;21.80;78.00
21489;DHT22;10906;45.194;5.684;2022-09-23T10:22:43;21.80;78.10
21489;DHT22;10906;45.194;5.684;2022-09-23T10:25:28;21.80;77.50
21489;DHT22;10906;45.194;5.684;2022-09-23T10:31:26;21.90;75.90
21489;DHT22;10906;45.194;5.684;2022-09-23T10:34:26;21.70;76.10
21489;DHT22;10906;45.194;5.684;2022-09-23T10:37:16;21.70;76.70
21489;DHT22;10906;45.194;5.684;2022-09-23T10:40:14;22.00;76.20
21489;DHT22;10906;45.194;5.684;2022-09-23T10:43:46;22.20;75.10
21489;DHT22;10906;45.194;5.684;2022-09-23T10:47:52;22.50;74.60
21489;DHT22;10906;45.194;5.684;2022-09-23T10:50:19;22.70;74.60
21489;DHT22;10906;45.194;5.684;2022-09-23T10:53:26;22.80;71.80
21489;DHT22;10906;45.194;5.684;2022-09-23T11:10:11;23.20;70.80
21489;DHT22;10906;45.194;5.684;2022-09-23T11:24:50;23.50;72.50
21489;DHT22;10906;45.194;5.684;2022-09-23T11:31:41;23.40;71.50
21489;DHT22;10906;45.194;5.684;2022-09-23T11:37:31;23.80;72.20
21489;DHT22;10906;45.194;5.684;2022-09-23T11:40:23;23.90;70.90
21489;DHT22;10906;45.194;5.684;2022-09-23T11:46:33;23.90;69.30
21489;DHT22;10906;45.194;5.684;2022-09-23T11:52:42;24.00;69.50
21489;DHT22;10906;45.194;5.684;2022-09-23T11:55:31;23.80;70.00
21489;DHT22;10906;45.194;5.684;2022-09-23T11:58:22;23.60;69.50
21489;DHT22;10906;45.194;5.684;2022-09-23T12:01:12;23.50;69.70
21489;DHT22;10906;45.194;5.684;2022-09-23T12:10:06;23.60;68.30
21489;DHT22;10906;45.194;5.684;2022-09-23T12:12:58;23.40;69.40
21489;DHT22;10906;45.194;5.684;2022-09-23T12:25:41;23.40;72.00
21489;DHT22;10906;45.194;5.684;2022-09-23T12:28:36;23.30;72.50
21489;DHT22;10906;45.194;5.684;2022-09-23T12:31:24;23.20;72.30
21489;DHT22;10906;45.194;5.684;2022-09-23T12:34:26;23.10;72.20
21489;DHT22;10906;45.194;5.684;2022-09-23T12:37:11;23.10;72.00
21489;DHT22;10906;45.194;5.684;2022-09-23T12:40:00;23.00;72.80
21489;DHT22;10906;45.194;5.684;2022-09-23T12:42:45;23.10;73.50
21489;DHT22;10906;45.194;5.684;2022-09-23T12:45:31;23.10;73.30
21489;DHT22;10906;45.194;5.684;2022-09-23T12:48:26;23.10;73.80
21489;DHT22;10906;45.194;5.684;2022-09-23T12:51:31;23.10;74.00
21489;DHT22;10906;45.194;5.684;2022-09-23T12:54:22;23.00;74.70
21489;DHT22;10906;45.194;5.684;2022-09-23T13:02:57;22.90;75.30
21489;DHT22;10906;45.194;5.684;2022-09-23T13:06:01;22.90;75.40
21489;DHT22;10906;45.194;5.684;2022-09-23T13:09:09;22.90;75.70
21489;DHT22;10906;45.194;5.684;2022-09-23T13:12:01;22.90;76.00
21489;DHT22;10906;45.194;5.684;2022-09-23T13:14:49;23.10;77.20
21489;DHT22;10906;45.194;5.684;2022-09-23T13:17:37;23.20;76.60
21489;DHT22;10906;45.194;5.684;2022-09-23T13:23:19;23.50;76.30
21489;DHT22;10906;45.194;5.684;2022-09-23T13:26:09;23.60;76.20
21489;DHT22;10906;45.194;5.684;2022-09-23T13:28:58;23.60;75.60
21489;DHT22;10906;45.194;5.684;2022-09-23T13:31:44;23.50;75.80
21489;DHT22;10906;45.194;5.684;2022-09-23T13:34:31;23.50;76.30
21489;DHT22;10906;45.194;5.684;2022-09-23T13:37:27;23.50;76.40
21489;DHT22;10906;45.194;5.684;2022-09-23T13:40:24;23.40;76.70
21489;DHT22;10906;45.194;5.684;2022-09-23T13:43:36;23.40;77.10
21489;DHT22;10906;45.194;5.684;2022-09-23T13:46:25;23.40;76.80
21489;DHT22;10906;45.194;5.684;2022-09-23T13:49:22;23.40;77.40
21489;DHT22;10906;45.194;5.684;2022-09-23T13:52:28;23.40;77.80
21489;DHT22;10906;45.194;5.684;2022-09-23T13:55:25;23.30;77.20
21489;DHT22;10906;45.194;5.684;2022-09-23T13:58:22;23.30;77.40
21489;DHT22;10906;45.194;5.684;2022-09-23T14:01:08;23.20;78.00
21489;DHT22;10906;45.194;5.684;2022-09-23T14:03:53;23.20;78.00
21489;DHT22;10906;45.194;5.684;2022-09-23T14:06:39;23.10;78.50
21489;DHT22;10906;45.194;5.684;2022-09-23T14:09:26;23.10;78.80
21489;DHT22;10906;45.194;5.684;2022-09-23T14:12:11;23.00;78.80
21489;DHT22;10906;45.194;5.684;2022-09-23T14:14:56;23.00;79.40
21489;DHT22;10906;45.194;5.684;2022-09-23T14:17:47;23.00;79.40
21489;DHT22;10906;45.194;5.684;2022-09-23T14:20:44;23.00;79.30
21489;DHT22;10906;45.194;5.684;2022-09-23T14:23:29;22.90;79.30
21489;DHT22;10906;45.194;5.684;2022-09-23T14:26:14;23.00;80.00
21489;DHT22;10906;45.194;5.684;2022-09-23T14:28:58;23.00;79.60
21489;DHT22;10906;45.194;5.684;2022-09-23T14:31:48;23.00;80.00
21489;DHT22;10906;45.194;5.684;2022-09-23T14:43:34;23.30;80.80
21489;DHT22;10906;45.194;5.684;2022-09-23T14:46:19;23.40;79.90
21489;DHT22;10906;45.194;5.684;2022-09-23T14:51:57;23.60;79.70
21489;DHT22;10906;45.194;5.684;2022-09-23T14:54:49;23.70;80.00
21489;DHT22;10906;45.194;5.684;2022-09-23T14:57:33;23.80;79.90
21489;DHT22;10906;45.194;5.684;2022-09-23T15:00:19;23.90;79.40
21489;DHT22;10906;45.194;5.684;2022-09-23T15:03:12;24.00;79.10
21489;DHT22;10906;45.194;5.684;2022-09-23T15:06:04;24.00;79.50
21489;DHT22;10906;45.194;5.684;2022-09-23T15:08:54;23.90;79.20
21489;DHT22;10906;45.194;5.684;2022-09-23T15:11:38;23.80;79.20
21489;DHT22;10906;45.194;5.684;2022-09-23T15:14:26;23.80;78.60
21489;DHT22;10906;45.194;5.684;2022-09-23T15:20:20;24.00;79.00
21489;DHT22;10906;45.194;5.684;2022-09-23T15:23:05;24.10;78.10
21489;DHT22;10906;45.194;5.684;2022-09-23T15:25:50;24.00;78.10
21489;DHT22;10906;45.194;5.684;2022-09-23T15:28:35;23.70;78.30
21489;DHT22;10906;45.194;5.684;2022-09-23T15:31:20;23.50;78.70
21489;DHT22;10906;45.194;5.684;2022-09-23T15:34:05;23.50;78.80
21489;DHT22;10906;45.194;5.684;2022-09-23T15:36:50;23.40;78.30
21489;DHT22;10906;45.194;5.684;2022-09-23T15:39:34;23.50;79.00
21489;DHT22;10906;45.194;5.684;2022-09-23T15:42:19;23.40;78.60
21489;DHT22;10906;45.194;5.684;2022-09-23T15:45:04;23.30;78.80
21489;DHT22;10906;45.194;5.684;2022-09-23T15:47:49;23.20;79.50
21489;DHT22;10906;45.194;5.684;2022-09-23T15:50:34;23.10;79.50
21489;DHT22;10906;45.194;5.684;2022-09-23T15:53:25;23.00;80.10
21489;DHT22;10906;45.194;5.684;2022-09-23T15:56:09;23.00;79.40
21489;DHT22;10906;45.194;5.684;2022-09-23T15:58:54;22.90;79.20
21489;DHT22;10906;45.194;5.684;2022-09-23T16:01:38;22.80;78.80
21489;DHT22;10906;45.194;5.684;2022-09-23T16:04:24;22.60;79.00
21489;DHT22;10906;45.194;5.684;2022-09-23T16:07:11;22.50;79.50
21489;DHT22;10906;45.194;5.684;2022-09-23T16:09:59;22.50;79.60
21489;DHT22;10906;45.194;5.684;2022-09-23T16:12:43;22.40;79.80
21489;DHT22;10906;45.194;5.684;2022-09-23T16:15:30;22.30;79.60
21489;DHT22;10906;45.194;5.684;2022-09-23T16:18:14;22.20;79.70
21489;DHT22;10906;45.194;5.684;2022-09-23T16:20:59;22.20;80.30
21489;DHT22;10906;45.194;5.684;2022-09-23T16:23:46;22.10;80.60
21489;DHT22;10906;45.194;5.684;2022-09-23T16:26:32;22.00;80.60
21489;DHT22;10906;45.194;5.684;2022-09-23T16:29:18;22.00;80.90
21489;DHT22;10906;45.194;5.684;2022-09-23T16:32:02;21.90;81.20
21489;DHT22;10906;45.194;5.684;2022-09-23T16:34:47;21.80;81.50
21489;DHT22;10906;45.194;5.684;2022-09-23T16:37:31;21.80;81.80
21489;DHT22;10906;45.194;5.684;2022-09-23T16:40:17;21.70;82.00
21489;DHT22;10906;45.194;5.684;2022-09-23T16:43:07;21.70;82.30
21489;DHT22;10906;45.194;5.684;2022-09-23T16:45:51;21.60;82.40
21489;DHT22;10906;45.194;5.684;2022-09-23T16:48:36;21.60;82.60
21489;DHT22;10906;45.194;5.684;2022-09-23T16:51:31;21.50;82.70
21489;DHT22;10906;45.194;5.684;2022-09-23T16:54:21;21.50;82.60
21489;DHT22;10906;45.194;5.684;2022-09-23T16:57:06;21.40;83.00
21489;DHT22;10906;45.194;5.684;2022-09-23T16:59:52;21.40;83.10
21489;DHT22;10906;45.194;5.684;2022-09-23T17:02:55;21.40;83.50
21489;DHT22;10906;45.194;5.684;2022-09-23T17:05:57;21.30;83.60
21489;DHT22;10906;45.194;5.684;2022-09-23T17:08:42;21.30;83.30
21489;DHT22;10906;45.194;5.684;2022-09-23T17:11:28;21.20;83.00
21489;DHT22;10906;45.194;5.684;2022-09-23T17:14:14;21.10;83.20
21489;DHT22;10906;45.194;5.684;2022-09-23T17:16:58;21.10;83.00
21489;DHT22;10906;45.194;5.684;2022-09-23T17:19:43;21.10;83.20
21489;DHT22;10906;45.194;5.684;2022-09-23T17:22:29;21.00;83.50
21489;DHT22;10906;45.194;5.684;2022-09-23T17:25:13;21.00;83.70
21489;DHT22;10906;45.194;5.684;2022-09-23T17:27:59;21.00;83.80
21489;DHT22;10906;45.194;5.684;2022-09-23T17:30:43;20.90;84.30
21489;DHT22;10906;45.194;5.684;2022-09-23T17:33:30;20.90;84.30
21489;DHT22;10906;45.194;5.684;2022-09-23T17:36:15;20.80;84.10
21489;DHT22;10906;45.194;5.684;2022-09-23T17:38:59;20.80;84.20
21489;DHT22;10906;45.194;5.684;2022-09-23T17:41:44;20.80;84.20
21489;DHT22;10906;45.194;5.684;2022-09-23T17:44:31;20.80;84.60
21489;DHT22;10906;45.194;5.684;2022-09-23T17:47:16;20.70;84.30
21489;DHT22;10906;45.194;5.684;2022-09-23T17:50:01;20.70;84.30
21489;DHT22;10906;45.194;5.684;2022-09-23T17:52:45;20.60;84.50
21489;DHT22;10906;45.194;5.684;2022-09-23T17:55:29;20.60;84.80
21489;DHT22;10906;45.194;5.684;2022-09-23T17:58:13;20.50;85.00
21489;DHT22;10906;45.194;5.684;2022-09-23T18:00:58;20.50;85.40
21489;DHT22;10906;45.194;5.684;2022-09-23T18:03:43;20.50;85.70
21489;DHT22;10906;45.194;5.684;2022-09-23T18:06:29;20.40;85.80
21489;DHT22;10906;45.194;5.684;2022-09-23T18:09:14;20.40;86.00
21489;DHT22;10906;45.194;5.684;2022-09-23T18:11:58;20.40;86.00
21489;DHT22;10906;45.194;5.684;2022-09-23T18:14:42;20.40;86.00
21489;DHT22;10906;45.194;5.684;2022-09-23T18:17:28;20.40;85.90
21489;DHT22;10906;45.194;5.684;2022-09-23T18:20:12;20.40;85.80
21489;DHT22;10906;45.194;5.684;2022-09-23T18:22:59;20.30;85.90
21489;DHT22;10906;45.194;5.684;2022-09-23T18:25:44;20.40;86.20
21489;DHT22;10906;45.194;5.684;2022-09-23T18:28:31;20.30;86.10
21489;DHT22;10906;45.194;5.684;2022-09-23T18:31:16;20.20;86.10
21489;DHT22;10906;45.194;5.684;2022-09-23T18:34:09;20.20;87.00
21489;DHT22;10906;45.194;5.684;2022-09-23T18:36:54;20.20;87.10
21489;DHT22;10906;45.194;5.684;2022-09-23T18:39:38;20.10;87.10
21489;DHT22;10906;45.194;5.684;2022-09-23T18:42:24;20.10;87.30
21489;DHT22;10906;45.194;5.684;2022-09-23T18:45:10;20.00;87.50
21489;DHT22;10906;45.194;5.684;2022-09-23T18:47:54;20.00;88.10
21489;DHT22;10906;45.194;5.684;2022-09-23T18:50:57;19.90;87.90
21489;DHT22;10906;45.194;5.684;2022-09-23T18:53:43;19.90;88.30
21489;DHT22;10906;45.194;5.684;2022-09-23T18:56:40;19.90;89.00
21489;DHT22;10906;45.194;5.684;2022-09-23T18:59:26;19.80;88.70
21489;DHT22;10906;45.194;5.684;2022-09-23T19:02:11;19.80;89.20
21489;DHT22;10906;45.194;5.684;2022-09-23T19:04:56;19.80;89.20
21489;DHT22;10906;45.194;5.684;2022-09-23T19:07:41;19.80;89.20
21489;DHT22;10906;45.194;5.684;2022-09-23T19:10:25;19.70;89.70
21489;DHT22;10906;45.194;5.684;2022-09-23T19:13:10;19.70;90.00
21489;DHT22;10906;45.194;5.684;2022-09-23T19:15:54;19.60;90.20
21489;DHT22;10906;45.194;5.684;2022-09-23T19:18:40;19.50;90.30
21489;DHT22;10906;45.194;5.684;2022-09-23T19:21:26;19.50;90.30
21489;DHT22;10906;45.194;5.684;2022-09-23T19:24:11;19.40;90.20
21489;DHT22;10906;45.194;5.684;2022-09-23T19:26:58;19.40;90.00
21489;DHT22;10906;45.194;5.684;2022-09-23T19:29:44;19.40;90.10
21489;DHT22;10906;45.194;5.684;2022-09-23T19:32:30;19.40;90.10
21489;DHT22;10906;45.194;5.684;2022-09-23T19:35:16;19.30;90.10
21489;DHT22;10906;45.194;5.684;2022-09-23T19:38:00;19.30;90.10
21489;DHT22;10906;45.194;5.684;2022-09-23T19:40:48;19.30;90.10
21489;DHT22;10906;45.194;5.684;2022-09-23T19:43:35;19.20;90.00
21489;DHT22;10906;45.194;5.684;2022-09-23T19:46:22;19.20;90.00
21489;DHT22;10906;45.194;5.684;2022-09-23T19:49:07;19.10;90.20
21489;DHT22;10906;45.194;5.684;2022-09-23T19:51:52;19.20;90.50
21489;DHT22;10906;45.194;5.684;2022-09-23T19:54:38;19.10;90.60
21489;DHT22;10906;45.194;5.684;2022-09-23T19:57:22;19.20;90.50
21489;DHT22;10906;45.194;5.684;2022-09-23T20:00:08;19.10;90.40
21489;DHT22;10906;45.194;5.684;2022-09-23T20:02:53;19.10;90.70
21489;DHT22;10906;45.194;5.684;2022-09-23T20:05:38;19.10;90.90
21489;DHT22;10906;45.194;5.684;2022-09-23T20:08:23;19.00;91.10
21489;DHT22;10906;45.194;5.684;2022-09-23T20:11:13;19.00;91.30
21489;DHT22;10906;45.194;5.684;2022-09-23T20:13:59;19.00;91.30
21489;DHT22;10906;45.194;5.684;2022-09-23T20:16:45;19.00;91.30
21489;DHT22;10906;45.194;5.684;2022-09-23T20:19:29;18.90;91.50
21489;DHT22;10906;45.194;5.684;2022-09-23T20:22:14;18.90;91.40
21489;DHT22;10906;45.194;5.684;2022-09-23T20:25:15;18.90;91.30
21489;DHT22;10906;45.194;5.684;2022-09-23T20:28:00;18.90;91.40
21489;DHT22;10906;45.194;5.684;2022-09-23T20:30:44;18.90;91.50
21489;DHT22;10906;45.194;5.684;2022-09-23T20:33:28;18.90;91.80
21489;DHT22;10906;45.194;5.684;2022-09-23T20:36:13;18.80;91.90
21489;DHT22;10906;45.194;5.684;2022-09-23T20:39:00;18.80;91.80
21489;DHT22;10906;45.194;5.684;2022-09-23T20:41:45;18.80;91.70
21489;DHT22;10906;45.194;5.684;2022-09-23T20:44:31;18.90;91.80
21489;DHT22;10906;45.194;5.684;2022-09-23T20:47:17;18.80;91.90
21489;DHT22;10906;45.194;5.684;2022-09-23T20:50:01;18.80;91.80
21489;DHT22;10906;45.194;5.684;2022-09-23T20:52:46;18.80;92.10
21489;DHT22;10906;45.194;5.684;2022-09-23T20:55:30;18.80;92.10
21489;DHT22;10906;45.194;5.684;2022-09-23T20:58:15;18.80;92.50
21489;DHT22;10906;45.194;5.684;2022-09-23T21:01:05;18.80;92.60
21489;DHT22;10906;45.194;5.684;2022-09-23T21:03:49;18.80;92.00
21489;DHT22;10906;45.194;5.684;2022-09-23T21:06:36;18.80;92.00
21489;DHT22;10906;45.194;5.684;2022-09-23T21:09:21;18.80;92.50
21489;DHT22;10906;45.194;5.684;2022-09-23T21:12:05;18.80;92.10
21489;DHT22;10906;45.194;5.684;2022-09-23T21:14:50;18.80;92.10
21489;DHT22;10906;45.194;5.684;2022-09-23T21:17:34;18.80;92.30
21489;DHT22;10906;45.194;5.684;2022-09-23T21:20:19;18.80;92.10
21489;DHT22;10906;45.194;5.684;2022-09-23T21:23:03;18.80;92.30
21489;DHT22;10906;45.194;5.684;2022-09-23T21:25:49;18.80;92.60
21489;DHT22;10906;45.194;5.684;2022-09-23T21:28:36;18.80;92.60
21489;DHT22;10906;45.194;5.684;2022-09-23T21:31:31;18.70;92.80
21489;DHT22;10906;45.194;5.684;2022-09-23T21:34:16;18.70;92.60
21489;DHT22;10906;45.194;5.684;2022-09-23T21:37:01;18.70;92.60
21489;DHT22;10906;45.194;5.684;2022-09-23T21:39:46;18.70;92.40
21489;DHT22;10906;45.194;5.684;2022-09-23T21:42:50;18.70;92.60
21489;DHT22;10906;45.194;5.684;2022-09-23T21:45:35;18.70;92.60
21489;DHT22;10906;45.194;5.684;2022-09-23T21:48:19;18.70;92.60
21489;DHT22;10906;45.194;5.684;2022-09-23T21:51:11;18.70;92.60
21489;DHT22;10906;45.194;5.684;2022-09-23T21:53:57;18.70;92.80
21489;DHT22;10906;45.194;5.684;2022-09-23T21:56:42;18.70;92.80
21489;DHT22;10906;45.194;5.684;2022-09-23T21:59:27;18.70;92.80
